Flight Track Log - Related Links

Times and Time Zones

All times are in EDT time to prevent confusion due to time zone crossing. See the N147SW flight status page for this flight to view local times or setup timezone preferences in your user account.

Time Position Orientation Groundspeed Altitude Reporting Facility
EDT Latitude Longitude Course Direction KTS MPH feet Rate Location/Type
Wed 07:35:29 AM 27.9167 -82.6833 291° West 129 148 400  Level Tampa TRACON
Wed 07:36:11 AM 27.9333 -82.7333 291° West 216 249 1,700 3,146 Climbing Tampa TRACON
Wed 07:37:12 AM 27.9000 -82.7833 233° Southwest 244 281 5,800 3,064 Climbing Tampa TRACON
Wed 07:39:19 AM 27.7700 -82.7183 156° South 276 318 11,300 2,182 Climbing Miami Center
Wed 07:40:19 AM 27.6925 -82.6767 155° Southeast 285 328 12,600 1,700 Climbing Miami Center
Wed 07:41:19 AM 27.6089 -82.6303 154° Southeast 317 365 14,700 1,850 Climbing Miami Center
Wed 07:42:19 AM 27.5169 -82.5789 154° Southeast 346 398 16,300 2,350 Climbing Miami Center
Wed 07:43:19 AM 27.4214 -82.5203 151° Southeast 360 414 19,400 2,950 Climbing Miami Center
Wed 07:44:19 AM 27.3664 -82.4289 124° Southeast 352 405 22,200 2,050 Climbing Miami Center
Wed 07:45:19 AM 27.3264 -82.3289 114° Southeast 361 415 23,500 1,100 Climbing Miami Center
Wed 07:46:19 AM 27.2769 -82.2003 113° Southeast 393 452 24,400 900 Climbing Miami Center
Wed 07:47:19 AM 27.2250 -82.0767 115° Southeast 422 486 25,300 800 Climbing Miami Center
Wed 07:48:19 AM 27.1714 -81.9481 115° Southeast 440 506 26,000 800 Climbing Miami Center
Wed 07:49:19 AM 27.1253 -81.8319 114° Southeast 452 520 26,900 900 Climbing Miami Center
Wed 07:50:19 AM 27.0692 -81.7036 116° Southeast 459 528 27,800 850 Climbing Miami Center
Wed 07:51:19 AM 27.0092 -81.5542 114° Southeast 459 528 28,600 600 Climbing Miami Center
Wed 07:52:19 AM 26.9550 -81.4192 114° Southeast 466 536 29,000 200 Climbing Miami Center
Wed 07:53:19 AM 26.8883 -81.2864 119° Southeast 485 558 29,000  Level Miami Center
Wed 07:54:19 AM 26.8081 -81.1764 129° Southeast 495 570 29,000  Level Miami Center
Wed 07:55:19 AM 26.7119 -81.0378 128° Southeast 506 582 29,000  Level Miami Center
Wed 07:56:19 AM 26.6342 -80.9028 123° Southeast 511 588 29,000  Level Miami Center
Wed 07:57:19 AM 26.5797 -80.7569 113° Southeast 511 588 29,000  Level Miami Center
Wed 07:58:19 AM 26.5247 -80.6228 115° Southeast 516 594 29,000  Level Miami Center
Wed 07:59:19 AM 26.4644 -80.4536 112° Southeast 521 600 29,000  Level Miami Center
Wed 08:00:19 AM 26.4053 -80.3081 114° Southeast 521 600 29,000  Level Miami Center
Wed 08:01:19 AM 26.3439 -80.1581 115° Southeast 516 594 29,000  Level Miami Center
Wed 08:02:19 AM 26.2983 -80.0408 113° Southeast 522 601 29,000  Level Miami Center
Wed 08:03:19 AM 26.2331 -79.8769 114° Southeast 527 606 29,000  Level Miami Center
Wed 08:04:19 AM 26.1756 -79.7275 113° Southeast 527 606 29,000  Level Miami Center
Wed 08:05:19 AM 26.1136 -79.5778 115° Southeast 527 606 29,000  Level Miami Center
Wed 08:06:19 AM 26.0536 -79.4283 114° Southeast 527 606 29,000  Level Miami Center
Wed 08:07:19 AM 25.9892 -79.2769 115° Southeast 527 606 29,000  Level Miami Center
Wed 08:08:19 AM 25.9311 -79.1325 114° Southeast 527 606 29,000  Level Miami Center
Wed 08:09:19 AM 25.8725 -78.9858 114° Southeast 522 601 29,000  Level Miami Center
Wed 08:10:19 AM 25.8164 -78.8278 111° Southeast 512 589 29,000  Level Miami Center
Wed 08:11:19 AM 25.7553 -78.7047 119° Southeast 478 550 29,000  Level Miami Center
Wed 08:12:19 AM 25.7044 -78.5861 115° Southeast 446 513 29,000  Level Miami Center
Wed 08:13:19 AM 25.6597 -78.4703 113° Southeast 424 488 29,000  Level Miami Center
Wed 08:14:19 AM 25.6128 -78.3636 116° Southeast 403 464 29,000  Level Miami Center
Wed 08:15:19 AM 25.5761 -78.2642 112° Southeast 369 425 29,000  Level Miami Center
Wed 08:16:19 AM 25.5353 -78.1783 118° Southeast 335 386 29,000  Level Miami Center
Wed 08:17:19 AM 25.5025 -78.0953 114° Southeast 304 350 29,000  Level Miami Center
Wed 08:18:19 AM 25.4656 -78.0075 115° Southeast 299 344 29,000  Level Miami Center
Wed 08:19:19 AM 25.4306 -77.9586 128° Southeast 288 331 29,000  Level Miami Center
Wed 08:20:19 AM 25.3908 -77.9422 160° South 203 234 29,000  Level Miami Center

Login

Don't have an account? Register now (free) for customized features, flight alerts, and more!